createdAt,value
2019-05-23T00:00:58.310Z,100.00
2019-05-23T00:03:59.043Z,100.00
2019-05-23T00:06:56.197Z,100.00
2019-05-23T00:09:52.755Z,100.00
2019-05-23T00:13:19.713Z,100.00
2019-05-23T00:16:16.030Z,100.00
2019-05-23T00:19:12.633Z,100.00
2019-05-23T00:22:08.991Z,100.00
2019-05-23T00:25:10.789Z,100.00
2019-05-23T00:28:08.529Z,100.00
2019-05-23T00:31:10.471Z,100.00
2019-05-23T00:34:06.278Z,100.00
2019-05-23T00:37:07.253Z,100.00
2019-05-23T00:40:10.047Z,100.00
2019-05-23T00:43:06.797Z,100.00
2019-05-23T00:46:04.271Z,100.00
2019-05-23T00:49:00.052Z,100.00
2019-05-23T00:52:03.548Z,100.00
2019-05-23T00:54:58.565Z,100.00
2019-05-23T00:57:55.916Z,100.00
2019-05-23T01:00:51.426Z,100.00
2019-05-23T01:03:47.631Z,100.00
2019-05-23T01:06:44.137Z,100.00
2019-05-23T01:09:39.573Z,100.00
2019-05-23T01:12:37.283Z,100.00
2019-05-23T01:15:31.766Z,100.00
2019-05-23T01:18:28.487Z,100.00
2019-05-23T01:21:46.985Z,100.00
2019-05-23T01:24:45.573Z,100.00
2019-05-23T01:27:43.191Z,100.00
2019-05-23T01:30:43.593Z,100.00
2019-05-23T01:33:40.217Z,100.00
2019-05-23T01:36:37.771Z,100.00
2019-05-23T01:39:35.108Z,100.00
2019-05-23T01:42:32.568Z,100.00
2019-05-23T01:45:29.317Z,100.00
2019-05-23T01:48:25.849Z,100.00
2019-05-23T01:51:22.587Z,100.00
2019-05-23T01:54:18.725Z,100.00
2019-05-23T01:57:15.304Z,100.00
2019-05-23T02:00:12.189Z,100.00
2019-05-23T02:03:09.023Z,100.00
2019-05-23T02:06:05.411Z,100.00
2019-05-23T02:09:03.107Z,100.00
2019-05-23T02:11:59.879Z,100.00
2019-05-23T02:14:57.456Z,100.00
2019-05-23T02:17:55.237Z,100.00
2019-05-23T02:20:55.014Z,100.00
2019-05-23T02:23:51.683Z,100.00
2019-05-23T02:26:47.811Z,100.00
2019-05-23T02:29:45.425Z,100.00
2019-05-23T02:32:48.185Z,100.00
2019-05-23T02:35:45.544Z,100.00
2019-05-23T02:38:57.250Z,100.00
2019-05-23T02:42:08.134Z,100.00
2019-05-23T02:45:06.005Z,100.00
2019-05-23T02:48:02.697Z,100.00
2019-05-23T02:51:03.195Z,100.00
2019-05-23T02:54:05.609Z,100.00
2019-05-23T02:57:02.206Z,100.00
2019-05-23T03:00:11.344Z,100.00
2019-05-23T03:03:10.990Z,100.00
2019-05-23T03:06:15.962Z,100.00
2019-05-23T03:09:13.780Z,100.00
2019-05-23T03:12:11.212Z,100.00
2019-05-23T03:15:09.631Z,100.00
2019-05-23T03:18:11.478Z,100.00
2019-05-23T03:21:07.994Z,100.00
2019-05-23T03:24:09.709Z,100.00
2019-05-23T03:27:26.281Z,100.00
2019-05-23T03:30:32.590Z,100.00
2019-05-23T03:33:28.057Z,100.00
2019-05-23T03:36:25.832Z,100.00
2019-05-23T03:39:22.412Z,100.00
2019-05-23T03:42:18.973Z,100.00
2019-05-23T03:45:16.457Z,100.00
2019-05-23T03:48:12.961Z,100.00
2019-05-23T03:51:10.637Z,100.00
2019-05-23T03:54:07.477Z,100.00
2019-05-23T03:57:04.312Z,100.00
2019-05-23T04:00:01.074Z,100.00
2019-05-23T04:02:57.677Z,100.00
2019-05-23T04:06:01.456Z,100.00
2019-05-23T04:08:57.991Z,100.00
2019-05-23T04:11:55.223Z,100.00
2019-05-23T04:14:51.780Z,100.00
2019-05-23T04:17:49.557Z,100.00
2019-05-23T04:20:47.084Z,100.00
2019-05-23T04:23:43.671Z,100.00
2019-05-23T04:26:41.346Z,100.00
2019-05-23T04:29:38.065Z,100.00
2019-05-23T04:32:38.183Z,100.00
2019-05-23T04:35:34.873Z,100.00
2019-05-23T04:38:35.866Z,100.00
2019-05-23T04:41:31.231Z,100.00
2019-05-23T04:44:35.229Z,100.00
2019-05-23T04:47:48.439Z,100.00
2019-05-23T04:50:38.582Z,100.00
2019-05-23T04:53:35.630Z,100.00
2019-05-23T04:56:36.571Z,100.00
2019-05-23T04:59:33.291Z,100.00
2019-05-23T05:02:30.998Z,100.00
2019-05-23T05:05:27.818Z,100.00
2019-05-23T05:08:25.680Z,100.00
2019-05-23T05:11:22.334Z,100.00
2019-05-23T05:14:25.376Z,100.00
2019-05-23T05:17:27.554Z,100.00
2019-05-23T05:20:37.753Z,100.00
2019-05-23T05:23:45.431Z,100.00
2019-05-23T05:26:49.681Z,100.00
2019-05-23T05:29:45.691Z,100.00
2019-05-23T05:32:45.543Z,100.00
2019-05-23T05:35:39.890Z,100.00
2019-05-23T05:38:37.570Z,100.00
2019-05-23T05:41:35.735Z,100.00
2019-05-23T05:44:33.277Z,100.00
2019-05-23T05:47:30.865Z,100.00
2019-05-23T05:50:27.383Z,100.00
2019-05-23T05:53:24.299Z,100.00
2019-05-23T05:56:21.534Z,100.00
2019-05-23T05:59:18.059Z,100.00
2019-05-23T06:02:18.059Z,100.00
2019-05-23T06:05:14.610Z,100.00
2019-05-23T06:08:15.982Z,100.00
2019-05-23T06:11:12.619Z,100.00
2019-05-23T06:14:09.713Z,100.00
2019-05-23T06:17:05.073Z,100.00
2019-05-23T06:20:02.127Z,100.00
2019-05-23T06:23:00.605Z,100.00
2019-05-23T06:25:55.232Z,100.00
2019-05-23T06:28:53.065Z,100.00
2019-05-23T06:31:49.386Z,100.00
2019-05-23T06:34:51.360Z,100.00
2019-05-23T06:37:48.059Z,100.00
2019-05-23T06:40:52.890Z,100.00
2019-05-23T06:43:50.586Z,100.00
2019-05-23T06:46:48.215Z,100.00
2019-05-23T06:49:46.155Z,100.00
2019-05-23T06:52:42.493Z,100.00
2019-05-23T06:55:40.343Z,100.00
2019-05-23T06:58:36.314Z,100.00
2019-05-23T07:01:32.856Z,100.00
2019-05-23T07:04:30.708Z,100.00
2019-05-23T07:07:26.253Z,100.00
2019-05-23T07:10:23.016Z,100.00
2019-05-23T07:13:20.004Z,100.00
2019-05-23T07:16:16.390Z,100.00
2019-05-23T07:19:14.291Z,100.00
2019-05-23T07:22:10.445Z,100.00
2019-05-23T07:25:08.333Z,100.00
2019-05-23T07:28:06.283Z,100.00
2019-05-23T07:31:13.258Z,100.00
2019-05-23T07:34:17.271Z,100.00
2019-05-23T07:37:19.466Z,100.00
2019-05-23T07:40:17.393Z,92.30
2019-05-23T07:43:14.760Z,86.08
2019-05-23T07:46:12.048Z,90.78
2019-05-23T07:49:08.760Z,87.02
2019-05-23T07:52:06.700Z,87.33
2019-05-23T07:55:11.313Z,87.47
2019-05-23T07:58:07.910Z,88.46
2019-05-23T08:01:07.208Z,83.47
2019-05-23T08:04:19.925Z,86.19
2019-05-23T08:07:01.548Z,85.42
2019-05-23T08:09:59.310Z,83.34
2019-05-23T08:12:55.454Z,80.93
2019-05-23T08:15:53.004Z,81.13
2019-05-23T08:18:49.566Z,78.48
2019-05-23T08:21:47.352Z,79.63
2019-05-23T08:24:43.459Z,80.81
2019-05-23T08:27:39.754Z,79.50
2019-05-23T08:30:37.503Z,77.82
2019-05-23T08:33:34.164Z,79.39
2019-05-23T08:36:32.137Z,79.48
2019-05-23T08:39:28.605Z,76.74
2019-05-23T08:42:26.947Z,78.81
2019-05-23T08:45:33.010Z,74.20
2019-05-23T08:48:29.030Z,72.50
2019-05-23T08:51:26.645Z,70.04
2019-05-23T08:54:23.238Z,70.15
2019-05-23T08:57:19.903Z,68.05
2019-05-23T09:00:16.159Z,69.03
2019-05-23T09:03:12.754Z,70.35
2019-05-23T09:06:11.786Z,69.35
2019-05-23T09:09:27.920Z,70.91
2019-05-23T09:12:05.884Z,69.21
2019-05-23T09:15:03.719Z,69.19
2019-05-23T09:18:00.267Z,71.05
2019-05-23T09:20:57.786Z,70.31
2019-05-23T09:23:54.472Z,66.10
2019-05-23T09:26:52.115Z,67.36
2019-05-23T09:29:48.274Z,64.85
2019-05-23T09:32:44.932Z,67.58
2019-05-23T09:35:42.737Z,68.03
2019-05-23T09:38:39.401Z,63.24
2019-05-23T09:41:36.078Z,66.66
2019-05-23T09:44:33.048Z,65.37
2019-05-23T09:47:29.352Z,65.62
2019-05-23T09:50:25.677Z,63.22
2019-05-23T09:53:31.230Z,66.19
2019-05-23T09:56:34.864Z,65.63
2019-05-23T09:59:31.489Z,65.43
2019-05-23T10:02:27.745Z,66.09
2019-05-23T10:05:40.988Z,66.01
2019-05-23T10:08:20.997Z,59.08
2019-05-23T10:11:16.876Z,60.49
2019-05-23T10:14:14.472Z,57.47
2019-05-23T10:17:11.355Z,61.14
2019-05-23T10:20:08.025Z,60.16
2019-05-23T10:23:04.637Z,59.24
2019-05-23T10:26:00.138Z,57.57
2019-05-23T10:28:56.932Z,59.87
2019-05-23T10:31:52.222Z,61.75
2019-05-23T10:34:48.705Z,58.04
2019-05-23T10:37:45.344Z,56.59
2019-05-23T10:40:41.171Z,58.29
2019-05-23T10:43:37.718Z,60.45
2019-05-23T10:46:34.507Z,60.36
2019-05-23T10:49:32.068Z,58.51
2019-05-23T10:52:28.154Z,59.08
2019-05-23T10:55:34.492Z,59.17
2019-05-23T10:58:31.349Z,58.77
2019-05-23T11:01:27.069Z,56.84
2019-05-23T11:04:24.952Z,56.66
2019-05-23T11:07:21.842Z,57.47
2019-05-23T11:10:19.572Z,57.00
2019-05-23T11:13:16.086Z,55.59
2019-05-23T11:16:13.709Z,57.46
2019-05-23T11:19:11.584Z,54.92
2019-05-23T11:22:08.223Z,55.52
2019-05-23T11:25:05.141Z,54.13
2019-05-23T11:28:00.878Z,55.30
2019-05-23T11:31:03.416Z,51.80
2019-05-23T11:34:01.091Z,53.57
2019-05-23T11:36:57.453Z,54.37
2019-05-23T11:39:56.080Z,52.95
2019-05-23T11:42:52.854Z,49.55
2019-05-23T11:45:52.558Z,52.90
2019-05-23T11:48:48.135Z,53.96
2019-05-23T11:51:45.761Z,55.37
2019-05-23T11:54:42.594Z,55.95
2019-05-23T11:57:38.880Z,53.41
2019-05-23T12:00:38.018Z,50.29
2019-05-23T12:03:34.534Z,55.77
2019-05-23T12:06:53.179Z,56.76
2019-05-23T12:09:36.329Z,55.64
2019-05-23T12:12:33.364Z,50.09
2019-05-23T12:15:35.713Z,52.80
2019-05-23T12:18:31.940Z,55.01
2019-05-23T12:21:29.898Z,53.34
2019-05-23T12:24:26.640Z,54.99
2019-05-23T12:27:24.599Z,51.95
2019-05-23T12:30:21.064Z,50.17
2019-05-23T12:33:17.641Z,54.20
2019-05-23T12:36:14.097Z,52.07
2019-05-23T12:39:10.716Z,47.56
2019-05-23T12:42:06.580Z,50.87
2019-05-23T12:45:01.670Z,52.44
2019-05-23T12:48:10.936Z,52.06
2019-05-23T12:51:08.441Z,47.22
2019-05-23T12:54:05.488Z,45.02
2019-05-23T12:57:01.898Z,50.68
2019-05-23T12:59:59.327Z,49.41
2019-05-23T13:02:57.019Z,48.44
2019-05-23T13:06:06.161Z,50.53
2019-05-23T13:09:03.807Z,49.79
2019-05-23T13:12:00.553Z,47.46
2019-05-23T13:14:58.835Z,48.38
2019-05-23T13:17:55.593Z,44.43
2019-05-23T13:20:58.810Z,44.86
2019-05-23T13:23:52.224Z,52.99
2019-05-23T13:26:50.062Z,50.69
2019-05-23T13:29:46.575Z,47.15
2019-05-23T13:32:44.147Z,46.81
2019-05-23T13:35:40.415Z,46.83
2019-05-23T13:38:36.554Z,46.11
2019-05-23T13:41:34.113Z,45.17
2019-05-23T13:44:35.182Z,48.96
2019-05-23T13:47:28.286Z,46.97
2019-05-23T13:50:24.833Z,45.02
2019-05-23T13:53:21.688Z,43.83
2019-05-23T13:56:18.589Z,40.63
2019-05-23T13:59:15.425Z,43.33
2019-05-23T14:02:12.129Z,42.75
2019-05-23T14:05:08.494Z,44.24
2019-05-23T14:08:12.387Z,44.41
2019-05-23T14:11:03.073Z,43.28
2019-05-23T14:14:02.182Z,37.45
2019-05-23T14:17:13.666Z,39.76
2019-05-23T14:20:09.979Z,36.66
2019-05-23T14:23:10.895Z,37.47
2019-05-23T14:26:07.313Z,35.97
2019-05-23T14:29:11.163Z,36.34
2019-05-23T14:32:20.436Z,35.99
2019-05-23T14:35:17.066Z,34.94
2019-05-23T14:38:29.589Z,37.96
2019-05-23T14:41:10.631Z,33.39
2019-05-23T14:44:09.168Z,36.37
2019-05-23T14:47:23.102Z,35.36
2019-05-23T14:50:32.264Z,36.90
2019-05-23T14:53:30.150Z,37.76
2019-05-23T14:56:25.799Z,32.43
2019-05-23T14:59:21.281Z,32.28
2019-05-23T15:02:20.548Z,34.12
2019-05-23T15:05:18.004Z,31.91
2019-05-23T15:08:14.200Z,35.89
2019-05-23T15:11:10.977Z,34.27
2019-05-23T15:14:09.935Z,35.10
2019-05-23T15:17:06.658Z,34.05
2019-05-23T15:20:05.112Z,38.25
2019-05-23T15:23:00.685Z,35.19
2019-05-23T15:25:58.362Z,33.53
2019-05-23T15:28:54.980Z,34.27
2019-05-23T15:32:01.905Z,33.99
2019-05-23T15:34:48.083Z,35.47
2019-05-23T15:37:44.943Z,35.29
2019-05-23T15:40:41.798Z,34.94
2019-05-23T15:43:38.551Z,33.82
2019-05-23T15:46:35.341Z,35.25
2019-05-23T15:49:32.928Z,35.10
2019-05-23T15:52:40.946Z,36.78
2019-05-23T15:55:54.293Z,36.90
2019-05-23T15:59:03.218Z,33.17
2019-05-23T16:02:18.787Z,35.49
2019-05-23T16:05:16.103Z,35.10
2019-05-23T16:08:11.651Z,38.65
2019-05-23T16:11:08.271Z,34.11
2019-05-23T16:14:04.810Z,36.79
2019-05-23T16:17:02.120Z,36.79
2019-05-23T16:19:59.665Z,38.34
2019-05-23T16:22:55.936Z,37.44
2019-05-23T16:25:52.140Z,36.57
2019-05-23T16:28:49.011Z,39.64
2019-05-23T16:31:46.801Z,38.20
2019-05-23T16:34:44.556Z,37.01
2019-05-23T16:37:41.414Z,40.25
2019-05-23T16:40:43.397Z,41.54
2019-05-23T16:43:40.013Z,42.55
2019-05-23T16:46:43.794Z,41.58
2019-05-23T16:49:40.714Z,43.74
2019-05-23T16:52:38.519Z,43.84
2019-05-23T16:55:52.592Z,43.38
2019-05-23T16:59:06.315Z,43.69
2019-05-23T17:02:19.185Z,43.62
2019-05-23T17:05:30.862Z,45.07
2019-05-23T17:08:44.861Z,44.42
2019-05-23T17:11:56.830Z,45.88
2019-05-23T17:14:59.837Z,45.39
2019-05-23T17:18:09.930Z,44.62
2019-05-23T17:21:33.274Z,44.99
2019-05-23T17:24:41.242Z,46.45
2019-05-23T17:28:01.142Z,47.58
2019-05-23T17:35:06.673Z,46.28
2019-05-23T17:37:37.029Z,47.61
2019-05-23T17:40:23.197Z,46.95
2019-05-23T17:42:39.811Z,46.68
2019-05-23T17:45:14.021Z,46.91
2019-05-23T17:47:42.601Z,47.97
2019-05-23T17:50:12.941Z,49.00
2019-05-23T17:52:43.282Z,49.14
2019-05-23T17:55:13.368Z,49.18
2019-05-23T17:57:43.528Z,48.92
2019-05-23T18:00:16.046Z,49.66
2019-05-23T18:02:46.308Z,49.53
2019-05-23T18:05:16.405Z,50.03
2019-05-23T18:07:46.625Z,50.39
2019-05-23T18:10:18.917Z,50.69
2019-05-23T18:12:49.430Z,51.16
2019-05-23T18:15:19.817Z,51.56
2019-05-23T18:17:50.218Z,50.33
2019-05-23T18:20:23.379Z,51.26
2019-05-23T18:22:54.518Z,51.33
2019-05-23T18:25:26.625Z,52.38
2019-05-23T18:27:56.814Z,53.18
2019-05-23T18:30:51.916Z,53.69
2019-05-23T18:33:23.992Z,54.36
2019-05-23T18:35:54.696Z,55.41
2019-05-23T18:38:25.525Z,57.05
2019-05-23T18:41:03.121Z,57.05
2019-05-23T18:43:29.407Z,57.64
2019-05-23T18:46:02.316Z,58.33
2019-05-23T18:48:32.837Z,59.16
2019-05-23T18:51:10.289Z,57.10
2019-05-23T18:53:54.654Z,59.50
2019-05-23T18:56:42.368Z,60.12
2019-05-23T18:59:53.403Z,60.78
2019-05-23T19:02:42.011Z,61.66
2019-05-23T19:05:25.386Z,63.18
2019-05-23T19:08:01.918Z,64.60
2019-05-23T19:10:43.209Z,66.52
2019-05-23T19:13:16.303Z,66.89
2019-05-23T19:15:54.983Z,68.37
2019-05-23T19:18:30.924Z,68.40
2019-05-23T19:21:04.177Z,69.64
2019-05-23T19:23:40.368Z,70.59
2019-05-23T19:26:16.898Z,72.02
2019-05-23T19:28:56.454Z,73.59
2019-05-23T19:31:32.823Z,75.17
2019-05-23T19:34:08.183Z,77.17
2019-05-23T19:36:42.065Z,78.81
2019-05-23T19:39:15.833Z,80.19
2019-05-23T19:41:46.063Z,80.80
2019-05-23T19:44:20.022Z,82.12
2019-05-23T19:46:50.304Z,83.34
2019-05-23T19:49:27.270Z,84.33
2019-05-23T19:52:07.927Z,85.00
2019-05-23T19:54:40.222Z,86.27
2019-05-23T19:57:10.626Z,87.09
2019-05-23T19:59:41.335Z,87.33
2019-05-23T20:02:29.084Z,87.96
2019-05-23T20:05:07.962Z,88.97
2019-05-23T20:07:39.921Z,88.87
2019-05-23T20:10:10.932Z,89.46
2019-05-23T20:12:41.226Z,90.43
2019-05-23T20:44:55.003Z,97.39
2019-05-23T20:47:27.658Z,97.55
2019-05-23T20:49:59.489Z,98.01
2019-05-23T20:52:31.272Z,98.67
2019-05-23T20:55:02.316Z,98.57
2019-05-23T20:57:32.705Z,98.84
2019-05-23T21:00:03.724Z,98.99
2019-05-23T21:02:34.735Z,99.02
2019-05-23T21:05:05.463Z,99.50
2019-05-23T21:07:37.154Z,100.00
2019-05-23T21:10:07.784Z,100.00
2019-05-23T21:12:39.492Z,100.00
2019-05-23T21:15:11.985Z,100.00
2019-05-23T21:17:42.194Z,100.00
2019-05-23T21:20:12.536Z,100.00
2019-05-23T21:22:43.759Z,100.00
2019-05-23T21:25:14.768Z,100.00
2019-05-23T21:27:46.623Z,100.00
2019-05-23T21:30:16.929Z,100.00
2019-05-23T21:32:47.186Z,100.00
2019-05-23T21:35:17.621Z,100.00
2019-05-23T21:37:49.473Z,100.00
2019-05-23T21:40:40.280Z,100.00
2019-05-23T22:03:45.118Z,100.00
2019-05-23T22:06:18.700Z,100.00
2019-05-23T22:08:50.611Z,100.00
2019-05-23T22:11:21.107Z,100.00
2019-05-23T22:13:52.100Z,100.00
2019-05-23T22:16:24.391Z,100.00
2019-05-23T22:18:55.386Z,100.00
2019-05-23T22:21:26.484Z,100.00
2019-05-23T22:23:56.772Z,100.00
2019-05-23T22:26:27.903Z,100.00
2019-05-23T22:28:58.378Z,100.00
2019-05-23T22:31:29.535Z,100.00
2019-05-23T22:34:21.699Z,100.00
2019-05-23T23:09:08.031Z,100.00
2019-05-23T23:11:41.189Z,100.00
2019-05-23T23:14:13.393Z,100.00
2019-05-23T23:16:43.638Z,100.00
2019-05-23T23:19:15.004Z,100.00
2019-05-23T23:21:46.083Z,100.00
2019-05-23T23:37:18.192Z,100.00
2019-05-23T23:39:50.285Z,100.00
2019-05-23T23:42:20.694Z,100.00
2019-05-23T23:44:51.506Z,100.00
2019-05-23T23:47:39.863Z,100.00
2019-05-23T23:50:28.834Z,100.00
2019-05-23T23:53:16.641Z,100.00
2019-05-23T23:56:05.109Z,100.00
2019-05-23T23:58:34.413Z,100.00
